createdAt,value
2019-05-20T00:00:31.506Z,96.58
2019-05-20T00:03:05.108Z,96.45
2019-05-20T00:05:37.516Z,96.17
2019-05-20T00:08:09.852Z,95.97
2019-05-20T00:10:41.404Z,95.85
2019-05-20T00:13:16.624Z,95.64
2019-05-20T00:15:48.879Z,95.52
2019-05-20T00:18:23.564Z,95.64
2019-05-20T00:20:57.058Z,95.69
2019-05-20T00:23:30.074Z,95.52
2019-05-20T00:26:04.014Z,95.45
2019-05-20T00:28:37.915Z,95.44
2019-05-20T00:31:14.717Z,95.44
2019-05-20T00:33:46.351Z,95.21
2019-05-20T00:36:20.984Z,95.04
2019-05-20T00:39:10.896Z,95.01
2019-05-20T00:41:44.536Z,94.88
2019-05-20T00:44:19.243Z,94.82
2019-05-20T00:46:51.123Z,94.79
2019-05-20T00:49:23.903Z,94.98
2019-05-20T00:51:55.556Z,94.78
2019-05-20T00:54:28.854Z,94.70
2019-05-20T00:57:00.536Z,94.78
2019-05-20T00:59:33.164Z,94.58
2019-05-20T01:02:09.158Z,94.67
2019-05-20T01:04:40.854Z,94.53
2019-05-20T01:07:14.220Z,94.64
2019-05-20T01:09:46.079Z,94.72
2019-05-20T01:12:20.179Z,94.80
2019-05-20T01:14:51.779Z,95.02
2019-05-20T01:17:25.354Z,95.25
2019-05-20T01:19:56.870Z,95.52
2019-05-20T01:22:29.619Z,95.50
2019-05-20T01:25:02.194Z,95.56
2019-05-20T01:27:34.441Z,95.65
2019-05-20T01:30:07.751Z,95.65
2019-05-20T01:32:41.101Z,95.81
2019-05-20T01:35:15.172Z,95.96
2019-05-20T01:37:47.134Z,95.96
2019-05-20T01:40:20.702Z,96.02
2019-05-20T01:42:54.011Z,95.94
2019-05-20T01:45:26.012Z,96.05
2019-05-20T01:47:58.043Z,96.07
2019-05-20T01:50:30.777Z,96.18
2019-05-20T01:53:03.119Z,96.26
2019-05-20T01:55:35.031Z,96.22
2019-05-20T01:58:08.290Z,96.47
2019-05-20T02:00:42.281Z,96.36
2019-05-20T02:03:30.369Z,96.36
2019-05-20T02:05:50.133Z,96.28
2019-05-20T02:08:23.229Z,96.37
2019-05-20T02:10:56.707Z,96.37
2019-05-20T02:13:47.262Z,96.22
2019-05-20T02:16:23.617Z,96.10
2019-05-20T02:18:55.919Z,95.94
2019-05-20T02:21:30.838Z,95.96
2019-05-20T02:24:02.459Z,95.93
2019-05-20T02:26:34.990Z,95.85
2019-05-20T02:29:08.274Z,95.86
2019-05-20T02:31:40.429Z,95.81
2019-05-20T02:34:12.660Z,95.63
2019-05-20T02:36:45.261Z,95.53
2019-05-20T02:39:19.398Z,95.35
2019-05-20T02:41:51.426Z,95.27
2019-05-20T02:44:24.014Z,94.99
2019-05-20T02:46:55.995Z,94.68
2019-05-20T02:49:27.773Z,94.55
2019-05-20T02:51:59.419Z,94.64
2019-05-20T02:54:32.704Z,94.69
2019-05-20T02:57:04.270Z,94.77
2019-05-20T02:59:35.928Z,94.75
2019-05-20T03:02:09.043Z,94.82
2019-05-20T03:04:42.944Z,94.90
2019-05-20T03:07:16.571Z,95.07
2019-05-20T03:09:49.240Z,95.30
2019-05-20T03:12:25.044Z,95.32
2019-05-20T03:14:59.480Z,95.45
2019-05-20T03:17:33.246Z,95.57
2019-05-20T03:20:06.077Z,95.59
2019-05-20T03:22:38.049Z,95.98
2019-05-20T03:25:09.875Z,96.17
2019-05-20T03:27:42.402Z,96.45
2019-05-20T03:30:15.846Z,96.75
2019-05-20T03:32:50.323Z,96.79
2019-05-20T03:35:21.880Z,96.83
2019-05-20T03:37:54.930Z,96.91
2019-05-20T03:40:27.149Z,97.00
2019-05-20T03:43:00.973Z,97.04
2019-05-20T03:45:34.638Z,97.03
2019-05-20T03:48:08.259Z,97.34
2019-05-20T03:50:40.528Z,97.37
2019-05-20T03:53:12.876Z,97.40
2019-05-20T03:55:46.290Z,97.38
2019-05-20T03:58:19.977Z,97.39
2019-05-20T04:00:55.140Z,97.34
2019-05-20T04:03:28.555Z,97.51
2019-05-20T04:06:02.987Z,97.88
2019-05-20T04:08:35.102Z,98.00
2019-05-20T04:11:07.088Z,98.39
2019-05-20T04:13:39.208Z,98.54
2019-05-20T04:16:10.889Z,98.68
2019-05-20T04:18:44.169Z,98.71
2019-05-20T04:21:15.836Z,98.77
2019-05-20T04:23:47.442Z,99.00
2019-05-20T04:26:22.923Z,98.98
2019-05-20T04:28:54.738Z,99.11
2019-05-20T04:31:28.010Z,99.04
2019-05-20T04:33:59.764Z,99.11
2019-05-20T04:36:32.014Z,99.06
2019-05-20T04:39:05.602Z,98.90
2019-05-20T04:41:37.586Z,98.98
2019-05-20T04:44:10.167Z,99.41
2019-05-20T04:46:44.131Z,99.49
2019-05-20T04:49:17.164Z,99.22
2019-05-20T04:51:50.442Z,99.28
2019-05-20T04:54:25.260Z,99.49
2019-05-20T04:56:59.683Z,99.18
2019-05-20T04:59:33.706Z,99.31
2019-05-20T05:02:06.904Z,98.92
2019-05-20T05:04:39.801Z,98.72
2019-05-20T05:07:13.045Z,98.01
2019-05-20T05:09:46.459Z,97.10
2019-05-20T05:12:19.243Z,96.66
2019-05-20T05:14:52.615Z,96.55
2019-05-20T05:17:27.005Z,96.47
2019-05-20T05:19:59.098Z,95.79
2019-05-20T05:22:31.814Z,95.14
2019-05-20T05:25:04.976Z,95.22
2019-05-20T05:27:37.987Z,94.64
2019-05-20T05:30:09.991Z,94.17
2019-05-20T05:32:45.007Z,94.00
2019-05-20T05:35:18.284Z,93.59
2019-05-20T05:37:50.789Z,93.71
2019-05-20T05:40:26.019Z,93.87
2019-05-20T05:43:00.510Z,93.64
2019-05-20T05:45:33.895Z,93.69
2019-05-20T05:48:06.033Z,93.79
2019-05-20T05:50:38.966Z,92.97
2019-05-20T05:53:13.426Z,92.82
2019-05-20T05:55:45.385Z,92.52
2019-05-20T05:58:17.071Z,92.12
2019-05-20T06:00:49.916Z,91.54
2019-05-20T06:03:22.617Z,90.95
2019-05-20T06:06:10.601Z,90.82
2019-05-20T06:08:31.652Z,90.23
2019-05-20T06:11:03.833Z,89.63
2019-05-20T06:13:36.934Z,88.65
2019-05-20T06:16:08.516Z,87.94
2019-05-20T06:18:40.262Z,87.08
2019-05-20T06:21:12.231Z,86.36
2019-05-20T06:23:46.323Z,86.31
2019-05-20T06:26:18.997Z,85.48
2019-05-20T06:28:51.331Z,84.63
2019-05-20T06:31:23.099Z,84.24
2019-05-20T06:33:57.541Z,84.26
2019-05-20T06:36:29.110Z,84.39
2019-05-20T06:39:14.485Z,83.70
2019-05-20T06:41:48.006Z,82.74
2019-05-20T06:44:20.725Z,81.29
2019-05-20T06:46:54.240Z,80.63
2019-05-20T06:49:27.738Z,78.97
2019-05-20T06:52:00.593Z,77.55
2019-05-20T06:54:33.069Z,76.43
2019-05-20T06:57:07.669Z,76.61
2019-05-20T06:59:40.556Z,76.06
2019-05-20T07:02:14.784Z,73.39
2019-05-20T07:04:47.492Z,70.75
2019-05-20T07:07:21.429Z,69.84
2019-05-20T07:09:54.971Z,69.10
2019-05-20T07:12:40.122Z,68.73
2019-05-20T07:15:02.109Z,67.92
2019-05-20T07:17:39.033Z,66.19
2019-05-20T07:20:11.792Z,66.23
2019-05-20T07:22:55.593Z,66.41
2019-05-20T07:25:19.052Z,66.42
2019-05-20T07:27:52.877Z,66.45
2019-05-20T07:30:27.492Z,65.71
2019-05-20T07:32:59.427Z,65.93
2019-05-20T07:35:32.421Z,61.59
2019-05-20T07:38:04.159Z,59.85
2019-05-20T07:40:37.877Z,59.30
2019-05-20T07:43:09.782Z,58.54
2019-05-20T07:45:44.161Z,58.54
2019-05-20T07:48:16.765Z,58.46
2019-05-20T07:50:50.420Z,57.82
2019-05-20T07:53:27.279Z,56.46
2019-05-20T07:56:06.021Z,56.39
2019-05-20T07:58:41.890Z,55.28
2019-05-20T08:01:14.178Z,55.20
2019-05-20T08:03:46.839Z,54.16
2019-05-20T08:06:23.969Z,55.31
2019-05-20T08:09:01.836Z,52.02
2019-05-20T08:11:35.171Z,51.83
2019-05-20T08:14:07.952Z,51.81
2019-05-20T08:16:40.157Z,51.53
2019-05-20T08:19:13.469Z,50.81
2019-05-20T08:21:48.487Z,50.40
2019-05-20T08:24:23.210Z,50.75
2019-05-20T08:26:55.744Z,50.63
2019-05-20T08:29:29.619Z,50.78
2019-05-20T08:32:03.814Z,50.02
2019-05-20T08:34:35.732Z,50.13
2019-05-20T08:37:10.580Z,49.95
2019-05-20T08:39:44.408Z,49.37
2019-05-20T08:42:16.134Z,49.18
2019-05-20T08:44:48.719Z,49.36
2019-05-20T08:47:20.624Z,49.76
2019-05-20T08:49:52.505Z,49.60
2019-05-20T08:52:24.204Z,49.26
2019-05-20T08:54:58.254Z,48.75
2019-05-20T08:57:33.138Z,48.52
2019-05-20T09:00:09.260Z,49.45
2019-05-20T09:02:41.296Z,48.98
2019-05-20T09:05:14.650Z,49.53
2019-05-20T09:08:01.495Z,49.54
2019-05-20T09:10:24.502Z,48.82
2019-05-20T09:13:00.674Z,48.60
2019-05-20T09:15:33.321Z,48.66
2019-05-20T09:18:07.355Z,49.19
2019-05-20T09:20:39.469Z,49.14
2019-05-20T09:23:14.372Z,49.69
2019-05-20T09:25:47.966Z,49.45
2019-05-20T09:28:20.838Z,49.08
2019-05-20T09:30:56.129Z,49.34
2019-05-20T09:33:30.717Z,49.84
2019-05-20T09:36:05.250Z,50.46
2019-05-20T09:38:37.539Z,49.96
2019-05-20T09:41:10.914Z,49.82
2019-05-20T09:43:42.968Z,51.29
2019-05-20T09:46:14.510Z,51.55
2019-05-20T09:48:47.507Z,55.51
2019-05-20T09:51:20.578Z,56.22
2019-05-20T09:53:52.630Z,57.25
2019-05-20T09:56:24.671Z,57.39
2019-05-20T09:58:57.514Z,57.14
2019-05-20T10:01:31.901Z,58.08
2019-05-20T10:04:04.770Z,60.28
2019-05-20T10:06:37.264Z,56.47
2019-05-20T10:09:11.573Z,56.47
2019-05-20T10:11:46.335Z,55.10
2019-05-20T10:14:18.487Z,55.40
2019-05-20T10:16:52.531Z,56.67
2019-05-20T10:19:25.239Z,58.27
2019-05-20T10:21:57.468Z,56.19
2019-05-20T10:24:29.232Z,55.70
2019-05-20T10:27:02.349Z,56.65
2019-05-20T10:29:38.088Z,54.84
2019-05-20T10:32:12.280Z,52.22
2019-05-20T10:34:43.823Z,53.53
2019-05-20T10:37:16.439Z,52.78
2019-05-20T10:39:48.589Z,51.82
2019-05-20T10:42:23.970Z,53.69
2019-05-20T10:44:56.567Z,53.14
2019-05-20T10:47:29.382Z,52.55
2019-05-20T10:50:01.220Z,52.08
2019-05-20T10:52:36.516Z,50.66
2019-05-20T10:55:08.825Z,51.07
2019-05-20T10:57:40.795Z,51.80
2019-05-20T11:00:17.488Z,51.44
2019-05-20T11:02:50.371Z,49.76
2019-05-20T11:05:25.191Z,49.42
2019-05-20T11:07:57.023Z,49.64
2019-05-20T11:10:28.671Z,48.14
2019-05-20T11:13:04.224Z,48.92
2019-05-20T11:15:38.020Z,49.42
2019-05-20T11:18:09.558Z,48.56
2019-05-20T11:20:41.555Z,48.74
2019-05-20T11:23:14.270Z,48.82
2019-05-20T11:25:47.566Z,48.87
2019-05-20T11:28:21.965Z,47.98
2019-05-20T11:30:54.518Z,46.92
2019-05-20T11:33:29.038Z,46.17
2019-05-20T11:36:00.827Z,47.16
2019-05-20T11:38:34.552Z,46.35
2019-05-20T11:41:07.012Z,45.89
2019-05-20T11:43:40.701Z,45.89
2019-05-20T11:46:13.311Z,46.38
2019-05-20T11:48:47.474Z,46.63
2019-05-20T11:51:20.885Z,46.73
2019-05-20T11:53:54.426Z,47.68
2019-05-20T11:56:26.051Z,47.29
2019-05-20T11:58:59.804Z,47.91
2019-05-20T12:01:32.439Z,47.61
2019-05-20T12:04:04.948Z,47.36
2019-05-20T12:06:36.995Z,48.01
2019-05-20T12:09:10.861Z,49.14
2019-05-20T12:11:43.892Z,48.13
2019-05-20T12:14:16.364Z,48.16
2019-05-20T12:16:49.799Z,47.83
2019-05-20T12:19:21.413Z,45.77
2019-05-20T12:21:53.015Z,45.81
2019-05-20T12:24:27.089Z,44.41
2019-05-20T12:26:58.950Z,44.60
2019-05-20T12:29:31.850Z,42.94
2019-05-20T12:32:05.327Z,42.91
2019-05-20T12:34:38.789Z,44.28
2019-05-20T12:37:12.664Z,43.89
2019-05-20T12:39:45.771Z,43.73
2019-05-20T12:42:20.346Z,44.41
2019-05-20T12:44:53.046Z,44.01
2019-05-20T12:47:26.450Z,43.94
2019-05-20T12:49:59.203Z,40.50
2019-05-20T12:52:33.126Z,39.09
2019-05-20T12:55:09.482Z,38.87
2019-05-20T12:57:41.770Z,38.47
2019-05-20T13:00:16.085Z,38.69
2019-05-20T13:02:48.221Z,38.55
2019-05-20T13:05:20.584Z,38.78
2019-05-20T13:07:54.931Z,39.34
2019-05-20T13:10:31.766Z,39.66
2019-05-20T13:13:02.821Z,38.35
2019-05-20T13:15:36.773Z,38.01
2019-05-20T13:18:08.825Z,37.37
2019-05-20T13:20:40.623Z,38.35
2019-05-20T13:23:14.633Z,37.19
2019-05-20T13:25:47.680Z,36.50
2019-05-20T13:28:21.486Z,35.34
2019-05-20T13:30:55.060Z,35.82
2019-05-20T13:33:27.394Z,34.27
2019-05-20T13:35:59.271Z,34.54
2019-05-20T13:38:32.266Z,34.16
2019-05-20T13:41:05.051Z,35.90
2019-05-20T13:43:38.260Z,36.36
2019-05-20T13:46:09.890Z,36.44
2019-05-20T13:48:44.687Z,37.32
2019-05-20T13:51:18.349Z,36.96
2019-05-20T13:53:50.948Z,37.76
2019-05-20T13:56:24.469Z,37.81
2019-05-20T13:58:58.124Z,37.60
2019-05-20T14:01:30.026Z,39.71
2019-05-20T14:04:02.040Z,39.43
2019-05-20T14:06:34.819Z,40.30
2019-05-20T14:09:08.612Z,40.87
2019-05-20T14:11:41.981Z,42.84
2019-05-20T14:14:17.997Z,44.28
2019-05-20T14:16:51.756Z,42.88
2019-05-20T14:19:23.407Z,42.70
2019-05-20T14:21:56.199Z,42.69
2019-05-20T14:24:30.280Z,42.56
2019-05-20T14:27:02.073Z,42.08
2019-05-20T14:29:35.307Z,42.25
2019-05-20T14:32:08.534Z,42.16
2019-05-20T14:34:41.397Z,42.44
2019-05-20T14:37:15.752Z,41.52
2019-05-20T14:39:48.662Z,41.91
2019-05-20T14:42:21.043Z,41.78
2019-05-20T14:44:56.358Z,41.00
2019-05-20T14:47:28.383Z,41.65
2019-05-20T14:50:00.029Z,41.55
2019-05-20T14:52:32.331Z,41.82
2019-05-20T14:55:04.843Z,39.96
2019-05-20T14:57:36.775Z,38.76
2019-05-20T15:00:10.591Z,39.51
2019-05-20T15:02:44.054Z,41.15
2019-05-20T15:05:17.389Z,39.72
2019-05-20T15:07:49.631Z,40.48
2019-05-20T15:10:22.611Z,41.29
2019-05-20T15:12:56.755Z,41.73
2019-05-20T15:15:30.839Z,42.53
2019-05-20T15:18:02.558Z,43.38
2019-05-20T15:20:36.492Z,44.65
2019-05-20T15:23:08.080Z,44.96
2019-05-20T15:25:40.582Z,44.43
2019-05-20T15:28:12.855Z,44.10
2019-05-20T15:30:45.962Z,44.71
2019-05-20T15:33:17.742Z,45.62
2019-05-20T15:35:49.987Z,44.36
2019-05-20T15:38:21.925Z,44.73
2019-05-20T15:40:57.547Z,45.62
2019-05-20T15:43:30.927Z,45.41
2019-05-20T15:46:02.729Z,45.39
2019-05-20T15:48:36.061Z,46.03
2019-05-20T15:51:07.801Z,47.18
2019-05-20T15:53:40.246Z,46.46
2019-05-20T15:56:11.808Z,45.38
2019-05-20T15:58:45.100Z,45.93
2019-05-20T16:01:17.372Z,44.66
2019-05-20T16:03:51.475Z,45.05
2019-05-20T16:06:25.061Z,45.04
2019-05-20T16:08:57.839Z,44.42
2019-05-20T16:11:29.844Z,43.79
2019-05-20T16:14:02.251Z,42.68
2019-05-20T16:16:34.306Z,42.55
2019-05-20T16:19:07.733Z,43.13
2019-05-20T16:21:41.463Z,43.90
2019-05-20T16:24:13.244Z,43.37
2019-05-20T16:26:46.604Z,42.50
2019-05-20T16:29:20.501Z,41.56
2019-05-20T16:31:54.644Z,41.63
2019-05-20T16:34:28.348Z,41.63
2019-05-20T16:37:00.869Z,41.96
2019-05-20T16:39:34.649Z,43.06
2019-05-20T16:42:09.349Z,43.40
2019-05-20T16:44:44.461Z,44.49
2019-05-20T16:47:16.766Z,45.06
2019-05-20T16:49:51.355Z,44.93
2019-05-20T16:52:24.548Z,45.29
2019-05-20T16:54:56.430Z,46.63
2019-05-20T16:57:28.948Z,47.52
2019-05-20T17:00:01.046Z,48.08
2019-05-20T17:02:35.724Z,48.09
2019-05-20T17:05:09.429Z,48.61
2019-05-20T17:07:43.555Z,48.57
2019-05-20T17:10:19.448Z,49.26
2019-05-20T17:12:52.004Z,48.96
2019-05-20T17:15:24.154Z,48.01
2019-05-20T17:17:57.538Z,47.38
2019-05-20T17:20:30.524Z,47.05
2019-05-20T17:23:02.618Z,46.02
2019-05-20T17:25:36.958Z,45.82
2019-05-20T17:28:09.385Z,45.33
2019-05-20T17:30:45.243Z,45.70
2019-05-20T17:33:14.976Z,45.11
2019-05-20T17:35:47.085Z,45.28
2019-05-20T17:38:20.793Z,46.08
2019-05-20T17:40:53.503Z,45.60
2019-05-20T17:43:28.514Z,46.28
2019-05-20T17:46:02.763Z,47.16
2019-05-20T17:48:35.632Z,47.50
2019-05-20T17:51:09.000Z,48.15
2019-05-20T17:53:43.324Z,48.73
2019-05-20T17:56:15.507Z,48.92
2019-05-20T17:58:48.386Z,48.74
2019-05-20T18:01:20.442Z,49.30
2019-05-20T18:03:53.522Z,49.72
2019-05-20T18:06:25.787Z,50.92
2019-05-20T18:09:00.921Z,51.87
2019-05-20T18:11:34.515Z,52.82
2019-05-20T18:14:06.812Z,53.06
2019-05-20T18:16:39.250Z,53.68
2019-05-20T18:19:11.578Z,53.96
2019-05-20T18:21:44.743Z,54.46
2019-05-20T18:24:18.393Z,54.94
2019-05-20T18:26:51.618Z,55.36
2019-05-20T18:29:24.122Z,55.58
2019-05-20T18:31:56.497Z,56.15
2019-05-20T18:34:29.879Z,56.18
2019-05-20T18:37:02.187Z,55.75
2019-05-20T18:39:38.729Z,56.08
2019-05-20T18:42:12.424Z,57.26
2019-05-20T18:44:48.678Z,57.29
2019-05-20T18:47:23.757Z,57.56
2019-05-20T18:49:57.729Z,57.80
2019-05-20T18:52:30.703Z,57.02
2019-05-20T18:55:03.163Z,57.97
2019-05-20T18:57:37.580Z,57.81
2019-05-20T19:00:13.919Z,57.94
2019-05-20T19:02:47.054Z,58.20
2019-05-20T19:05:20.680Z,60.14
2019-05-20T19:07:53.950Z,59.47
2019-05-20T19:10:27.245Z,57.53
2019-05-20T19:13:01.042Z,58.27
2019-05-20T19:15:35.682Z,59.99
2019-05-20T19:18:11.030Z,61.17
2019-05-20T19:20:43.702Z,61.76
2019-05-20T19:23:17.827Z,62.24
2019-05-20T19:25:50.899Z,61.35
2019-05-20T19:28:25.424Z,60.93
2019-05-20T19:31:01.635Z,61.67
2019-05-20T19:33:34.322Z,61.29
2019-05-20T19:36:07.416Z,61.73
2019-05-20T19:38:40.964Z,62.86
2019-05-20T19:41:14.708Z,62.75
2019-05-20T19:43:47.640Z,62.63
2019-05-20T19:46:23.212Z,61.57
2019-05-20T19:48:55.211Z,61.15
2019-05-20T19:51:27.143Z,60.54
2019-05-20T19:53:59.694Z,60.64
2019-05-20T19:56:32.940Z,60.21
2019-05-20T19:59:06.054Z,60.17
2019-05-20T20:01:40.184Z,59.94
2019-05-20T20:04:14.247Z,61.31
2019-05-20T20:06:48.719Z,62.78
2019-05-20T20:09:22.022Z,62.13
2019-05-20T20:11:54.741Z,61.64
2019-05-20T20:14:27.216Z,59.11
2019-05-20T20:17:00.871Z,61.28
2019-05-20T20:19:32.692Z,62.17
2019-05-20T20:22:08.216Z,62.23
2019-05-20T20:24:44.410Z,62.50
2019-05-20T20:27:19.556Z,62.89
2019-05-20T20:29:51.304Z,62.79
2019-05-20T20:32:36.796Z,67.64
2019-05-20T20:34:57.724Z,69.69
2019-05-20T20:37:32.258Z,66.85
2019-05-20T20:40:06.734Z,64.72
2019-05-20T20:42:40.883Z,64.38
2019-05-20T20:45:13.265Z,64.30
2019-05-20T20:47:45.059Z,64.13
2019-05-20T20:50:20.508Z,65.04
2019-05-20T20:52:52.931Z,64.77
2019-05-20T20:55:27.553Z,65.56
2019-05-20T20:57:59.399Z,64.45
2019-05-20T21:00:31.192Z,63.95
2019-05-20T21:03:04.541Z,64.06
2019-05-20T21:05:36.775Z,64.57
2019-05-20T21:08:08.390Z,64.51
2019-05-20T21:10:40.886Z,64.22
2019-05-20T21:13:16.835Z,64.46
2019-05-20T21:15:49.448Z,64.59
2019-05-20T21:18:23.660Z,64.62
2019-05-20T21:20:56.021Z,64.82
2019-05-20T21:23:28.459Z,65.24
2019-05-20T21:26:03.135Z,65.54
2019-05-20T21:28:37.640Z,65.51
2019-05-20T21:31:12.304Z,65.66
2019-05-20T21:33:45.028Z,65.92
2019-05-20T21:36:17.323Z,66.40
2019-05-20T21:38:50.852Z,66.81
2019-05-20T21:41:27.878Z,68.30
2019-05-20T21:44:02.088Z,70.33
2019-05-20T21:46:36.880Z,70.33
2019-05-20T21:49:08.461Z,69.94
2019-05-20T21:51:43.487Z,69.48
2019-05-20T21:54:15.576Z,71.06
2019-05-20T21:56:50.327Z,72.73
2019-05-20T21:59:24.634Z,72.25
2019-05-20T22:01:58.565Z,74.65
2019-05-20T22:04:31.093Z,75.05
2019-05-20T22:07:03.949Z,75.77
2019-05-20T22:09:39.269Z,75.87
2019-05-20T22:12:13.327Z,76.25
2019-05-20T22:14:46.096Z,75.67
2019-05-20T22:17:21.120Z,75.33
2019-05-20T22:19:52.867Z,76.66
2019-05-20T22:22:32.707Z,77.66
2019-05-20T22:25:09.856Z,77.70
2019-05-20T22:27:41.821Z,76.93
2019-05-20T22:30:15.219Z,76.70
2019-05-20T22:32:48.235Z,75.83
2019-05-20T22:35:21.000Z,76.34
2019-05-20T22:37:54.250Z,75.03
2019-05-20T22:40:28.616Z,75.78
2019-05-20T22:43:01.021Z,76.53
2019-05-20T22:45:33.334Z,75.95
2019-05-20T22:48:06.396Z,76.42
2019-05-20T22:50:40.420Z,77.00
2019-05-20T22:53:14.611Z,76.91
2019-05-20T22:55:47.321Z,77.55
2019-05-20T22:58:21.919Z,77.54
2019-05-20T23:00:57.572Z,77.96
2019-05-20T23:03:30.898Z,78.21
2019-05-20T23:06:05.859Z,78.01
2019-05-20T23:08:39.885Z,78.09
2019-05-20T23:11:13.692Z,77.44
2019-05-20T23:13:46.514Z,77.36
2019-05-20T23:16:19.991Z,77.74
2019-05-20T23:18:52.996Z,78.20
2019-05-20T23:21:25.867Z,78.24
2019-05-20T23:23:58.948Z,77.54
2019-05-20T23:26:31.083Z,77.62
2019-05-20T23:29:04.308Z,77.23
2019-05-20T23:31:36.754Z,76.75
2019-05-20T23:34:12.766Z,76.24
2019-05-20T23:36:44.220Z,76.32
2019-05-20T23:39:16.658Z,76.47
2019-05-20T23:41:48.924Z,76.37
2019-05-20T23:44:23.004Z,76.32
2019-05-20T23:46:56.079Z,76.56
2019-05-20T23:49:29.871Z,76.62
2019-05-20T23:52:02.953Z,76.66
2019-05-20T23:54:36.694Z,77.20
2019-05-20T23:57:08.972Z,77.56
2019-05-20T23:59:42.849Z,77.54
